createdAt,value
2019-02-07T00:00:37.446Z,-4.53
2019-02-07T00:03:12.185Z,-4.59
2019-02-07T00:05:43.574Z,-4.56
2019-02-07T00:08:15.694Z,-4.52
2019-02-07T00:10:47.108Z,-4.55
2019-02-07T00:13:18.428Z,-4.63
2019-02-07T00:15:53.765Z,-4.74
2019-02-07T00:18:25.750Z,-4.79
2019-02-07T00:21:01.381Z,-4.90
2019-02-07T00:23:34.333Z,-4.89
2019-02-07T00:26:08.101Z,-4.87
2019-02-07T00:28:39.878Z,-4.81
2019-02-07T00:31:12.858Z,-4.80
2019-02-07T00:33:47.536Z,-4.76
2019-02-07T00:36:22.744Z,-4.77
2019-02-07T00:38:57.415Z,-4.96
2019-02-07T00:41:28.627Z,-5.03
2019-02-07T00:44:04.818Z,-4.97
2019-02-07T00:46:37.948Z,-4.89
2019-02-07T00:49:09.876Z,-4.90
2019-02-07T00:51:43.815Z,-4.89
2019-02-07T00:54:18.280Z,-5.01
2019-02-07T00:56:49.526Z,-5.13
2019-02-07T00:59:22.825Z,-5.07
2019-02-07T01:01:58.231Z,-5.11
2019-02-07T01:04:32.576Z,-5.14
2019-02-07T01:07:05.782Z,-5.09
2019-02-07T01:09:37.865Z,-5.20
2019-02-07T01:12:09.896Z,-5.18
2019-02-07T01:14:41.154Z,-5.20
2019-02-07T01:17:14.863Z,-5.22
2019-02-07T01:19:48.848Z,-5.31
2019-02-07T01:22:20.052Z,-5.28
2019-02-07T01:24:54.009Z,-5.25
2019-02-07T01:27:28.175Z,-5.22
2019-02-07T01:30:01.006Z,-5.11
2019-02-07T01:32:32.819Z,-5.14
2019-02-07T01:35:04.007Z,-5.18
2019-02-07T01:37:35.224Z,-5.18
2019-02-07T01:40:11.546Z,-5.35
2019-02-07T01:42:45.558Z,-5.31
2019-02-07T01:45:20.987Z,-5.25
2019-02-07T01:47:53.181Z,-5.20
2019-02-07T01:50:25.269Z,-5.22
2019-02-07T01:52:58.110Z,-5.36
2019-02-07T01:55:32.070Z,-5.30
2019-02-07T01:58:03.681Z,-5.39
2019-02-07T02:00:34.960Z,-5.55
2019-02-07T02:03:09.457Z,-5.61
2019-02-07T02:05:43.005Z,-5.55
2019-02-07T02:08:16.401Z,-5.46
2019-02-07T02:10:47.674Z,-5.62
2019-02-07T02:13:22.233Z,-5.61
2019-02-07T02:15:56.235Z,-5.58
2019-02-07T02:18:29.204Z,-5.72
2019-02-07T02:21:04.254Z,-5.64
2019-02-07T02:23:35.493Z,-5.68
2019-02-07T02:26:08.130Z,-5.69
2019-02-07T02:28:39.343Z,-5.62
2019-02-07T02:31:13.415Z,-5.62
2019-02-07T02:33:45.739Z,-5.75
2019-02-07T02:36:18.250Z,-5.67
2019-02-07T02:38:53.550Z,-5.58
2019-02-07T02:41:25.379Z,-5.74
2019-02-07T02:44:00.874Z,-5.69
2019-02-07T02:46:34.353Z,-5.75
2019-02-07T02:49:08.318Z,-5.76
2019-02-07T02:51:41.459Z,-5.63
2019-02-07T02:54:35.218Z,-5.69
2019-02-07T02:57:08.496Z,-5.68
2019-02-07T02:59:41.352Z,-5.58
2019-02-07T03:02:31.368Z,-5.62
2019-02-07T03:05:43.994Z,-5.77
2019-02-07T03:08:40.604Z,-5.71
2019-02-07T03:11:41.241Z,-5.97
2019-02-07T03:14:42.155Z,-5.98
2019-02-07T03:17:37.429Z,-5.94
2019-02-07T03:20:44.789Z,-5.86
2019-02-07T03:23:42.398Z,-5.84
2019-02-07T03:26:34.337Z,-5.72
2019-02-07T03:29:36.412Z,-5.75
2019-02-07T03:32:22.484Z,-5.83
2019-02-07T03:35:12.485Z,-5.79
2019-02-07T03:38:02.025Z,-5.84
2019-02-07T03:40:59.282Z,-5.88
2019-02-07T03:43:48.244Z,-5.94
2019-02-07T03:46:40.277Z,-5.84
2019-02-07T03:49:19.170Z,-5.79
2019-02-07T03:52:22.273Z,-5.84
2019-02-07T03:55:13.163Z,-5.80
2019-02-07T03:58:03.404Z,-5.90
2019-02-07T04:00:59.828Z,-5.90
2019-02-07T04:03:43.970Z,-5.90
2019-02-07T04:06:49.679Z,-6.03
2019-02-07T04:09:41.983Z,-6.15
2019-02-07T04:12:26.592Z,-6.13
2019-02-07T04:15:17.182Z,-6.08
2019-02-07T04:18:07.615Z,-6.19
2019-02-07T04:20:58.731Z,-6.28
2019-02-07T04:23:52.452Z,-6.35
2019-02-07T04:26:42.744Z,-6.49
2019-02-07T04:29:25.734Z,-6.63
2019-02-07T04:32:18.122Z,-6.53
2019-02-07T04:35:01.628Z,-6.53
2019-02-07T04:38:00.477Z,-6.49
2019-02-07T04:40:41.796Z,-6.48
2019-02-07T04:43:44.194Z,-6.37
2019-02-07T04:46:44.727Z,-6.35
2019-02-07T04:49:28.772Z,-6.28
2019-02-07T04:52:26.882Z,-6.47
2019-02-07T04:55:19.016Z,-6.44
2019-02-07T04:58:11.222Z,-6.43
2019-02-07T05:00:53.905Z,-6.34
2019-02-07T05:04:03.340Z,-6.28
2019-02-07T05:06:48.990Z,-6.25
2019-02-07T05:09:49.900Z,-6.21
2019-02-07T05:12:33.277Z,-6.17
2019-02-07T05:15:26.111Z,-6.16
2019-02-07T05:18:14.184Z,-6.16
2019-02-07T05:21:02.013Z,-6.16
2019-02-07T05:23:47.487Z,-6.17
2019-02-07T05:26:36.847Z,-6.21
2019-02-07T05:29:23.907Z,-6.19
2019-02-07T05:32:12.531Z,-6.20
2019-02-07T05:35:01.763Z,-6.16
2019-02-07T05:37:52.352Z,-6.23
2019-02-07T05:40:43.679Z,-6.22
2019-02-07T05:43:54.765Z,-6.19
2019-02-07T05:46:51.017Z,-6.23
2019-02-07T05:49:38.992Z,-6.36
2019-02-07T05:52:37.126Z,-6.42
2019-02-07T05:55:41.202Z,-6.35
2019-02-07T05:58:45.323Z,-6.28
2019-02-07T06:01:35.946Z,-6.36
2019-02-07T06:04:23.743Z,-6.37
2019-02-07T06:07:18.181Z,-6.35
2019-02-07T06:10:13.479Z,-6.33
2019-02-07T06:13:15.235Z,-6.38
2019-02-07T06:16:11.756Z,-6.38
2019-02-07T06:19:01.129Z,-6.45
2019-02-07T06:22:02.985Z,-6.61
2019-02-07T06:25:04.186Z,-6.57
2019-02-07T06:28:09.390Z,-6.58
2019-02-07T06:30:48.565Z,-6.65
2019-02-07T06:33:38.926Z,-6.57
2019-02-07T06:36:28.125Z,-6.63
2019-02-07T06:39:21.459Z,-6.59
2019-02-07T06:42:20.140Z,-6.51
2019-02-07T06:45:09.819Z,-6.65
2019-02-07T06:48:00.350Z,-6.80
2019-02-07T06:50:50.512Z,-6.78
2019-02-07T06:53:39.813Z,-6.78
2019-02-07T06:56:30.562Z,-6.65
2019-02-07T06:59:22.397Z,-6.75
2019-02-07T07:02:20.665Z,-6.79
2019-02-07T07:05:25.456Z,-6.66
2019-02-07T07:08:35.805Z,-6.76
2019-02-07T07:11:21.953Z,-6.73
2019-02-07T07:14:21.569Z,-6.73
2019-02-07T07:17:06.534Z,-6.62
2019-02-07T07:19:54.579Z,-6.52
2019-02-07T07:22:53.762Z,-6.59
2019-02-07T07:25:54.636Z,-6.46
2019-02-07T07:28:45.541Z,-6.29
2019-02-07T07:31:37.539Z,-6.30
2019-02-07T07:34:29.544Z,-6.30
2019-02-07T07:37:24.583Z,-6.12
2019-02-07T07:40:22.369Z,-5.99
2019-02-07T07:43:05.916Z,-5.90
2019-02-07T07:46:00.544Z,-5.78
2019-02-07T07:48:54.198Z,-5.64
2019-02-07T07:51:44.396Z,-5.74
2019-02-07T07:54:40.833Z,-5.68
2019-02-07T07:57:31.650Z,-5.84
2019-02-07T08:00:26.315Z,-5.61
2019-02-07T08:03:24.375Z,-5.29
2019-02-07T08:06:35.110Z,-5.17
2019-02-07T08:09:20.778Z,-5.11
2019-02-07T08:12:18.493Z,-5.10
2019-02-07T08:15:09.261Z,-4.99
2019-02-07T08:18:01.279Z,-4.79
2019-02-07T08:20:45.343Z,-5.11
2019-02-07T08:23:35.772Z,-4.90
2019-02-07T08:26:40.101Z,-4.77
2019-02-07T08:29:30.662Z,-4.50
2019-02-07T08:32:32.566Z,-4.07
2019-02-07T08:35:34.303Z,-3.86
2019-02-07T08:38:39.339Z,-3.70
2019-02-07T08:41:27.003Z,-3.77
2019-02-07T08:44:21.310Z,-3.63
2019-02-07T08:47:10.687Z,-3.42
2019-02-07T08:52:59.712Z,-2.76
2019-02-07T08:55:51.021Z,-2.31
2019-02-07T08:58:55.126Z,-1.73
2019-02-07T09:01:38.035Z,-1.50
2019-02-07T09:04:24.251Z,-1.40
2019-02-07T09:07:18.021Z,-1.08
2019-02-07T09:10:23.496Z,-0.50
2019-02-07T09:13:10.369Z,-0.14
2019-02-07T09:15:52.098Z,0.34
2019-02-07T09:18:44.755Z,0.48
2019-02-07T09:21:37.533Z,0.53
2019-02-07T09:24:32.808Z,0.67
2019-02-07T09:27:22.892Z,1.11
2019-02-07T09:30:11.425Z,1.06
2019-02-07T09:33:03.588Z,0.96
2019-02-07T09:36:04.574Z,0.82
2019-02-07T09:38:45.069Z,1.43
2019-02-07T09:41:47.796Z,0.68
2019-02-07T09:44:46.358Z,1.48
2019-02-07T09:47:42.892Z,2.30
2019-02-07T09:50:32.196Z,2.23
2019-02-07T09:53:26.342Z,2.68
2019-02-07T09:56:19.857Z,3.22
2019-02-07T09:59:22.378Z,3.08
2019-02-07T10:02:28.424Z,3.02
2019-02-07T10:05:10.586Z,3.04
2019-02-07T10:08:21.747Z,4.03
2019-02-07T10:11:16.184Z,4.37
2019-02-07T10:14:09.914Z,4.61
2019-02-07T10:17:08.832Z,5.34
2019-02-07T10:19:57.946Z,5.15
2019-02-07T10:23:08.842Z,6.03
2019-02-07T10:26:01.407Z,6.38
2019-02-07T10:28:48.148Z,6.87
2019-02-07T10:31:48.329Z,7.56
2019-02-07T10:34:40.422Z,7.69
2019-02-07T10:37:41.770Z,8.33
2019-02-07T10:40:33.785Z,7.59
2019-02-07T10:43:27.201Z,8.27
2019-02-07T10:46:25.781Z,7.87
2019-02-07T10:49:15.556Z,7.98
2019-02-07T10:52:06.420Z,7.76
2019-02-07T10:55:06.819Z,7.51
2019-02-07T10:57:52.099Z,7.70
2019-02-07T11:00:56.360Z,7.23
2019-02-07T11:03:57.879Z,7.94
2019-02-07T11:06:56.534Z,9.15
2019-02-07T11:09:46.567Z,9.00
2019-02-07T11:12:39.092Z,9.40
2019-02-07T11:15:38.288Z,9.60
2019-02-07T11:18:32.595Z,9.79
2019-02-07T11:21:21.384Z,8.88
2019-02-07T11:24:12.781Z,9.41
2019-02-07T11:27:02.257Z,9.48
2019-02-07T11:29:49.699Z,10.33
2019-02-07T11:32:47.833Z,10.14
2019-02-07T11:35:53.528Z,11.22
2019-02-07T11:38:41.989Z,9.73
2019-02-07T11:41:49.458Z,10.30
2019-02-07T11:44:39.724Z,9.87
2019-02-07T11:47:31.943Z,10.94
2019-02-07T11:50:31.528Z,11.33
2019-02-07T11:53:28.878Z,11.59
2019-02-07T11:56:19.599Z,11.94
2019-02-07T11:59:08.506Z,11.37
2019-02-07T12:02:08.733Z,11.95
2019-02-07T12:04:43.448Z,11.74
2019-02-07T12:07:25.024Z,11.92
2019-02-07T12:10:34.844Z,11.73
2019-02-07T12:13:36.490Z,10.84
2019-02-07T12:16:27.829Z,12.04
2019-02-07T12:19:20.248Z,11.24
2019-02-07T12:22:25.395Z,11.28
2019-02-07T12:25:14.168Z,10.69
2019-02-07T12:28:12.580Z,9.47
2019-02-07T12:31:02.954Z,10.09
2019-02-07T12:33:56.169Z,9.90
2019-02-07T12:36:58.079Z,9.73
2019-02-07T12:39:47.568Z,9.40
2019-02-07T12:42:36.995Z,8.18
2019-02-07T12:45:33.354Z,7.21
2019-02-07T12:48:19.222Z,6.53
2019-02-07T12:51:17.019Z,6.25
2019-02-07T12:54:11.930Z,5.69
2019-02-07T12:57:02.836Z,5.86
2019-02-07T12:59:45.482Z,5.76
2019-02-07T13:02:54.803Z,5.57
2019-02-07T13:05:53.694Z,5.71
2019-02-07T13:08:36.800Z,5.70
2019-02-07T13:11:31.218Z,5.47
2019-02-07T13:14:33.174Z,5.61
2019-02-07T13:17:31.966Z,5.71
2019-02-07T13:20:10.903Z,5.78
2019-02-07T13:23:01.667Z,5.78
2019-02-07T13:25:49.529Z,5.43
2019-02-07T13:28:33.952Z,5.94
2019-02-07T13:31:26.393Z,6.05
2019-02-07T13:34:18.596Z,5.21
2019-02-07T13:37:13.492Z,5.68
2019-02-07T13:40:05.404Z,5.21
2019-02-07T13:43:03.918Z,5.20
2019-02-07T13:45:53.401Z,5.43
2019-02-07T13:48:33.030Z,5.31
2019-02-07T13:51:40.590Z,5.51
2019-02-07T13:54:30.219Z,5.41
2019-02-07T13:57:23.065Z,4.88
2019-02-07T14:00:18.608Z,4.97
2019-02-07T14:03:07.852Z,4.14
2019-02-07T14:05:58.036Z,4.18
2019-02-07T14:08:57.686Z,4.18
2019-02-07T14:11:50.436Z,4.16
2019-02-07T14:14:38.156Z,4.64
2019-02-07T14:17:28.292Z,4.80
2019-02-07T14:20:19.901Z,4.53
2019-02-07T14:23:13.170Z,4.64
2019-02-07T14:25:59.831Z,4.58
2019-02-07T14:28:57.091Z,4.17
2019-02-07T14:32:07.655Z,4.52
2019-02-07T14:35:16.780Z,4.95
2019-02-07T14:38:07.149Z,3.76
2019-02-07T14:40:56.508Z,4.13
2019-02-07T14:43:53.916Z,4.38
2019-02-07T14:46:44.452Z,3.54
2019-02-07T14:49:15.673Z,3.01
2019-02-07T14:51:47.797Z,3.14
2019-02-07T14:54:21.032Z,2.86
2019-02-07T14:56:55.342Z,3.14
2019-02-07T14:59:28.784Z,2.83
2019-02-07T15:02:03.630Z,2.25
2019-02-07T15:07:07.811Z,1.96
2019-02-07T15:09:41.752Z,1.48
2019-02-07T15:12:17.520Z,1.56
2019-02-07T15:14:51.719Z,1.71
2019-02-07T15:17:24.051Z,1.61
2019-02-07T15:19:56.985Z,1.78
2019-02-07T15:22:31.056Z,1.50
2019-02-07T15:25:02.680Z,1.60
2019-02-07T15:27:35.661Z,1.32
2019-02-07T15:30:12.574Z,1.37
2019-02-07T15:32:47.407Z,1.30
2019-02-07T15:35:22.524Z,1.13
2019-02-07T15:37:55.159Z,1.10
2019-02-07T15:40:28.933Z,0.99
2019-02-07T15:43:02.892Z,1.29
2019-02-07T15:45:35.830Z,0.99
2019-02-07T15:48:08.232Z,1.15
2019-02-07T15:50:41.730Z,0.96
2019-02-07T15:53:15.948Z,1.11
2019-02-07T15:55:48.840Z,0.84
2019-02-07T15:58:29.699Z,0.60
2019-02-07T16:01:17.545Z,0.46
2019-02-07T16:04:15.360Z,0.59
2019-02-07T16:06:47.624Z,0.34
2019-02-07T16:09:22.607Z,0.26
2019-02-07T16:11:55.109Z,0.15
2019-02-07T16:14:28.899Z,0.31
2019-02-07T16:17:03.116Z,0.49
2019-02-07T16:19:35.702Z,0.60
2019-02-07T16:22:08.088Z,0.42
2019-02-07T16:24:40.065Z,0.23
2019-02-07T16:27:13.005Z,0.20
2019-02-07T16:29:46.176Z,-0.12
2019-02-07T16:32:20.189Z,-0.23
2019-02-07T16:34:54.102Z,-0.37
2019-02-07T16:37:28.591Z,-0.37
2019-02-07T16:40:02.101Z,-0.59
2019-02-07T16:42:35.672Z,-0.71
2019-02-07T16:45:09.389Z,-0.71
2019-02-07T16:47:42.139Z,-0.65
2019-02-07T16:50:16.758Z,-0.64
2019-02-07T16:52:49.147Z,-0.52
2019-02-07T16:55:25.325Z,-0.61
2019-02-07T16:58:00.894Z,-0.59
2019-02-07T17:00:35.396Z,-0.57
2019-02-07T17:03:07.768Z,-0.96
2019-02-07T17:05:38.951Z,-0.44
2019-02-07T17:14:52.041Z,-0.55
2019-02-07T17:17:28.170Z,-0.56
2019-02-07T17:19:59.391Z,-0.49
2019-02-07T17:22:33.397Z,-0.56
2019-02-07T17:25:07.369Z,-0.73
2019-02-07T17:27:39.377Z,-0.84
2019-02-07T17:30:14.596Z,-0.81
2019-02-07T17:32:48.704Z,-0.72
2019-02-07T17:35:21.151Z,-0.82
2019-02-07T17:37:54.274Z,-1.02
2019-02-07T17:40:28.273Z,-0.96
2019-02-07T17:42:59.509Z,-0.93
2019-02-07T17:45:32.512Z,-0.89
2019-02-07T17:48:04.393Z,-0.80
2019-02-07T17:50:35.751Z,-0.83
2019-02-07T17:53:09.733Z,-1.06
2019-02-07T17:55:43.025Z,-1.31
2019-02-07T17:58:17.416Z,-1.33
2019-02-07T18:01:00.149Z,-1.33
2019-02-07T18:03:31.629Z,-1.29
2019-02-07T18:06:06.377Z,-1.48
2019-02-07T18:08:38.227Z,-1.41
2019-02-07T18:11:10.738Z,-1.58
2019-02-07T18:13:42.462Z,-1.38
2019-02-07T18:16:14.603Z,-1.37
2019-02-07T18:18:50.323Z,-1.86
2019-02-07T18:21:33.706Z,-1.76
2019-02-07T18:23:56.651Z,-1.54
2019-02-07T18:26:30.763Z,-1.52
2019-02-07T18:29:04.702Z,-1.40
2019-02-07T18:31:36.258Z,-1.38
2019-02-07T18:34:10.797Z,-1.38
2019-02-07T18:36:43.547Z,-1.39
2019-02-07T18:39:14.798Z,-1.33
2019-02-07T18:41:48.049Z,-1.45
2019-02-07T18:44:19.621Z,-1.34
2019-02-07T18:46:53.789Z,-1.36
2019-02-07T18:49:27.527Z,-1.43
2019-02-07T18:51:58.791Z,-1.36
2019-02-07T18:54:32.718Z,-1.39
2019-02-07T18:57:06.722Z,-1.37
2019-02-07T18:59:39.541Z,-1.53
2019-02-07T19:02:12.321Z,-1.58
2019-02-07T19:04:45.698Z,-1.37
2019-02-07T19:07:19.713Z,-1.40
2019-02-07T19:09:53.731Z,-1.43
2019-02-07T19:12:25.841Z,-1.44
2019-02-07T19:14:58.596Z,-1.52
2019-02-07T19:17:29.849Z,-1.36
2019-02-07T19:20:03.865Z,-1.49
2019-02-07T19:22:36.801Z,-1.60
2019-02-07T19:25:11.184Z,-1.59
2019-02-07T19:27:42.721Z,-1.61
2019-02-07T19:30:25.219Z,-1.61
2019-02-07T19:32:59.851Z,-1.46
2019-02-07T19:35:33.448Z,-1.56
2019-02-07T19:38:06.707Z,-1.56
2019-02-07T19:40:38.358Z,-1.57
2019-02-07T19:43:09.672Z,-1.46
2019-02-07T19:45:44.683Z,-1.83
2019-02-07T19:48:19.193Z,-1.95
2019-02-07T19:50:51.750Z,-1.97
2019-02-07T19:53:26.749Z,-1.74
2019-02-07T19:55:59.184Z,-1.58
2019-02-07T19:58:31.904Z,-1.66
2019-02-07T20:01:06.003Z,-1.58
2019-02-07T20:03:39.035Z,-1.56
2019-02-07T20:06:10.663Z,-1.60
2019-02-07T20:08:41.944Z,-1.49
2019-02-07T20:11:16.042Z,-1.45
2019-02-07T20:13:51.138Z,-1.40
2019-02-07T20:16:22.766Z,-1.30
2019-02-07T20:18:58.780Z,-1.21
2019-02-07T20:21:30.179Z,-1.20
2019-02-07T20:24:04.208Z,-1.28
2019-02-07T20:26:36.340Z,-1.22
2019-02-07T20:29:09.295Z,-1.14
2019-02-07T20:31:42.046Z,-1.09
2019-02-07T20:34:14.026Z,-1.21
2019-02-07T20:36:45.553Z,-1.37
2019-02-07T20:39:19.203Z,-1.33
2019-02-07T20:41:53.196Z,-1.25
2019-02-07T20:44:27.232Z,-1.22
2019-02-07T20:47:02.755Z,-1.20
2019-02-07T20:49:35.382Z,-1.22
2019-02-07T20:52:07.982Z,-1.27
2019-02-07T20:54:40.593Z,-1.31
2019-02-07T20:57:14.275Z,-1.30
2019-02-07T20:59:48.360Z,-1.28
2019-02-07T21:02:22.299Z,-1.10
2019-02-07T21:04:53.550Z,-1.16
2019-02-07T21:07:27.115Z,-1.25
2019-02-07T21:09:58.351Z,-1.30
2019-02-07T21:12:33.141Z,-1.16
2019-02-07T21:15:09.728Z,-1.05
2019-02-07T21:17:46.784Z,-0.99
2019-02-07T21:20:26.584Z,-0.97
2019-02-07T21:23:00.720Z,-0.89
2019-02-07T21:25:37.723Z,-0.97
2019-02-07T21:28:12.320Z,-0.85
2019-02-07T21:30:44.399Z,-0.93
2019-02-07T21:33:16.553Z,-0.81
2019-02-07T21:35:50.425Z,-0.76
2019-02-07T21:38:23.534Z,-0.84
2019-02-07T21:40:56.735Z,-0.90
2019-02-07T21:43:29.579Z,-1.01
2019-02-07T21:46:03.514Z,-0.93
2019-02-07T21:48:36.997Z,-0.97
2019-02-07T21:51:10.556Z,-0.88
2019-02-07T21:53:42.442Z,-0.83
2019-02-07T21:56:15.390Z,-0.75
2019-02-07T21:58:46.964Z,-0.62
2019-02-07T22:01:19.778Z,-0.62
2019-02-07T22:03:58.696Z,-0.55
2019-02-07T22:06:31.568Z,-0.51
2019-02-07T22:09:12.730Z,-0.45
2019-02-07T22:11:45.670Z,-0.35
2019-02-07T22:14:19.645Z,-0.25
2019-02-07T22:16:53.679Z,-0.27
2019-02-07T22:19:24.890Z,-0.07
2019-02-07T22:21:58.721Z,-0.17
2019-02-07T22:24:33.107Z,-0.09
2019-02-07T22:27:06.646Z,-0.07
2019-02-07T22:29:39.764Z,0.00
2019-02-07T22:32:13.292Z,-0.07
2019-02-07T22:34:45.713Z,-0.14
2019-02-07T22:37:16.908Z,-0.08
2019-02-07T22:39:50.142Z,-0.10
2019-02-07T22:42:23.308Z,0.02
2019-02-07T22:44:57.315Z,-0.01
2019-02-07T22:47:29.733Z,0.10
2019-02-07T22:50:03.731Z,0.10
2019-02-07T22:52:36.348Z,0.21
2019-02-07T22:55:08.342Z,0.28
2019-02-07T22:57:43.635Z,0.13
2019-02-07T23:01:10.215Z,0.23
2019-02-07T23:03:46.515Z,0.13
2019-02-07T23:06:18.809Z,0.16
2019-02-07T23:08:55.416Z,0.24
2019-02-07T23:11:26.719Z,0.22
2019-02-07T23:13:58.125Z,0.13
2019-02-07T23:16:31.541Z,0.14
2019-02-07T23:19:02.786Z,0.26
2019-02-07T23:21:36.217Z,-0.01
2019-02-07T23:24:08.155Z,-0.02
2019-02-07T23:26:39.797Z,0.01
2019-02-07T23:29:13.372Z,-0.09
2019-02-07T23:31:45.784Z,0.12
2019-02-07T23:34:17.955Z,0.06
2019-02-07T23:36:50.922Z,-0.05
2019-02-07T23:39:25.421Z,-0.02
2019-02-07T23:41:58.239Z,-0.01
2019-02-07T23:44:29.971Z,0.08
2019-02-07T23:47:04.047Z,0.27
2019-02-07T23:49:36.448Z,0.30
2019-02-07T23:52:09.113Z,0.37
2019-02-07T23:54:44.760Z,0.54
2019-02-07T23:57:17.306Z,0.46
2019-02-07T23:59:51.184Z,0.62
